Time;durP1;ratioP1;P1;durP2;ratioP2;P2;SDS_P1;SDS_P2;PMS_P1;PMS_P2;Temp;Humidity;BMP_temperature;BMP_pressure;BME280_temperature;BME280_humidity;BME280_pressure;Samples;Min_cycle;Max_cycle;Signal;HPM_P1;HPM_P2
2022/04/01 00:02:05;;;;;;;5.90;1.60;;;-0.10;99.90;;;;;;5063797;28;20045;-37
2022/04/01 00:04:32;;;;;;;5.87;1.70;;;-0.10;99.90;;;;;;5062865;28;20078;-36
2022/04/01 00:06:58;;;;;;;2.67;1.37;;;-0.10;99.90;;;;;;5030575;28;20056;-37
2022/04/01 00:09:24;;;;;;;4.90;1.97;;;-0.10;99.90;;;;;;5042773;28;20052;-37
2022/04/01 00:11:49;;;;;;;6.33;1.90;;;0.00;99.90;;;;;;5044468;28;20041;-37
2022/04/01 00:14:15;;;;;;;5.93;1.60;;;-0.10;99.90;;;;;;5041747;28;20496;-37
2022/04/01 00:16:41;;;;;;;7.20;2.60;;;-0.10;99.90;;;;;;5028967;28;20443;-37
2022/04/01 00:19:07;;;;;;;6.73;1.97;;;-0.10;99.90;;;;;;5042683;28;20052;-36
2022/04/01 00:21:34;;;;;;;7.30;2.40;;;0.00;99.90;;;;;;5064300;28;20059;-37
2022/04/01 00:24:01;;;;;;;6.00;2.20;;;0.00;99.90;;;;;;5063223;28;20032;-37
2022/04/01 00:26:27;;;;;;;5.00;2.00;;;0.00;99.90;;;;;;5051021;28;20525;-36
2022/04/01 00:28:53;;;;;;;4.30;1.93;;;0.00;99.90;;;;;;5058529;28;20064;-37
2022/04/01 00:31:19;;;;;;;7.97;1.73;;;0.00;99.90;;;;;;5063701;28;20053;-37
2022/04/01 00:33:44;;;;;;;7.87;1.90;;;0.00;99.90;;;;;;5063444;28;20045;-37
2022/04/01 00:36:10;;;;;;;5.80;2.03;;;0.00;99.90;;;;;;5054699;28;20107;-36
2022/04/01 00:38:36;;;;;;;4.40;1.93;;;0.10;99.90;;;;;;5056308;28;20574;-37
2022/04/01 00:41:02;;;;;;;6.87;1.93;;;0.00;99.90;;;;;;5063780;28;20056;-34
2022/04/01 00:43:30;;;;;;;7.33;2.00;;;0.00;99.90;;;;;;5063535;28;20045;-36
2022/04/01 00:45:57;;;;;;;5.70;2.20;;;0.10;99.90;;;;;;5063403;28;20358;-34
2022/04/01 00:48:24;;;;;;;7.10;1.60;;;0.00;99.90;;;;;;5047945;28;20297;-37
2022/04/01 00:50:49;;;;;;;6.70;1.73;;;0.00;99.90;;;;;;5063666;28;20080;-37
2022/04/01 00:53:17;;;;;;;4.10;1.70;;;0.00;99.90;;;;;;5063392;28;20083;-35
2022/04/01 00:55:43;;;;;;;4.87;2.00;;;0.10;99.90;;;;;;5063569;28;20044;-35
2022/04/01 00:58:09;;;;;;;4.50;1.60;;;0.00;99.90;;;;;;5046409;28;20127;-37
2022/04/01 01:00:36;;;;;;;4.60;1.53;;;0.00;99.90;;;;;;5063284;28;20519;-36
2022/04/01 01:03:03;;;;;;;8.30;2.07;;;0.10;99.90;;;;;;5065692;28;20036;-37
2022/04/01 01:05:30;;;;;;;4.93;1.87;;;0.10;99.90;;;;;;5056048;28;20125;-36
2022/04/01 01:07:57;;;;;;;5.27;1.77;;;0.10;99.90;;;;;;5031504;28;20448;-36
2022/04/01 01:10:24;;;;;;;5.70;2.03;;;0.10;99.90;;;;;;5046854;28;20085;-36
2022/04/01 01:12:51;;;;;;;8.43;2.23;;;0.10;99.90;;;;;;5045129;28;20064;-37
2022/04/01 01:15:21;;;;;;;4.77;1.70;;;0.10;99.90;;;;;;5046543;28;20303;-36
2022/04/01 01:17:47;;;;;;;7.13;2.03;;;0.10;99.90;;;;;;5029897;28;20083;-36
2022/04/01 01:20:17;;;;;;;7.90;2.23;;;0.10;99.90;;;;;;5058223;28;20159;-36
2022/04/01 01:22:44;;;;;;;5.47;1.87;;;0.10;99.90;;;;;;5066239;28;20059;-37
2022/04/01 01:25:12;;;;;;;5.47;2.00;;;0.10;99.90;;;;;;5066986;28;20048;-37
2022/04/01 01:27:38;;;;;;;5.43;1.80;;;0.00;99.90;;;;;;5050060;28;20046;-37
2022/04/01 01:30:05;;;;;;;4.70;1.90;;;0.10;99.90;;;;;;5066287;28;20586;-37
2022/04/01 01:32:32;;;;;;;3.33;1.70;;;0.00;99.90;;;;;;5066284;28;20055;-36
2022/04/01 01:34:59;;;;;;;7.17;1.67;;;0.00;99.90;;;;;;5066782;28;20044;-36
2022/04/01 01:37:25;;;;;;;6.17;2.30;;;0.10;99.90;;;;;;5049638;28;20040;-36
2022/04/01 01:39:51;;;;;;;9.33;1.97;;;0.10;99.90;;;;;;5066031;28;20055;-36
2022/04/01 01:42:17;;;;;;;5.53;1.83;;;0.10;99.90;;;;;;5066246;28;20056;-36
2022/04/01 01:44:43;;;;;;;7.23;2.03;;;0.10;99.90;;;;;;5066118;28;20045;-36
2022/04/01 01:47:09;;;;;;;5.10;2.07;;;0.10;99.90;;;;;;5050966;28;20490;-37
2022/04/01 01:49:35;;;;;;;5.77;1.77;;;0.10;99.90;;;;;;5066667;28;20071;-37
2022/04/01 01:54:49;;;;;;;3.53;1.80;;;0.10;99.90;;;;;;5045485;28;20049;-37
2022/04/01 01:57:21;;;;;;;7.03;1.83;;;0.10;99.90;;;;;;5029083;28;20079;-37
2022/04/01 01:59:47;;;;;;;;;;;0.10;99.90;;;;;;5046281;28;20057;-34
2022/04/01 02:02:12;;;;;;;5.30;1.80;;;0.10;99.90;;;;;;5046138;28;20387;-37
2022/04/01 02:04:39;;;;;;;7.27;1.87;;;0.10;99.90;;;;;;5046396;28;20033;-36
2022/04/01 02:07:06;;;;;;;5.40;1.87;;;0.10;99.90;;;;;;5010247;28;20088;-37
2022/04/01 02:09:32;;;;;;;6.77;1.50;;;0.10;99.90;;;;;;5046313;28;20115;-36
2022/04/01 02:11:58;;;;;;;5.40;2.00;;;0.10;99.90;;;;;;5044700;28;20555;-37
2022/04/01 02:14:24;;;;;;;5.20;1.73;;;0.10;99.90;;;;;;5044758;28;20048;-37
2022/04/01 02:16:50;;;;;;;6.23;2.00;;;0.10;99.90;;;;;;5030651;28;20449;-38
2022/04/01 02:19:21;;;;;;;5.10;1.63;;;0.10;99.90;;;;;;5045040;28;20068;-36
2022/04/01 02:21:55;;;;;;;6.07;1.17;;;0.10;99.90;;;;;;5044087;28;20478;-36
2022/04/01 02:24:23;;;;;;;5.57;1.70;;;0.10;99.90;;;;;;5045393;28;20470;-37
2022/04/01 02:26:49;;;;;;;6.87;1.67;;;0.10;99.90;;;;;;5043361;28;20447;-35
2022/04/01 02:29:19;;;;;;;5.67;1.83;;;0.10;99.90;;;;;;5064647;28;20511;-37
2022/04/01 02:31:47;;;;;;;7.60;1.77;;;0.10;99.90;;;;;;5065081;28;20147;-36
2022/04/01 02:34:13;;;;;;;5.93;2.10;;;0.10;99.90;;;;;;5064710;28;20071;-37
2022/04/01 02:36:39;;;;;;;8.63;2.10;;;0.10;99.90;;;;;;5051435;28;20536;-34
2022/04/01 02:39:06;;;;;;;4.90;1.60;;;0.10;99.90;;;;;;5064048;28;20131;-35
2022/04/01 02:41:32;;;;;;;4.77;1.80;;;0.20;99.90;;;;;;5063508;28;20040;-37
2022/04/01 02:44:08;;;;;;;7.87;1.83;;;0.10;99.90;;;;;;5064647;28;20559;-34
2022/04/01 02:46:43;;;;;;;5.33;1.73;;;0.10;99.90;;;;;;5049661;28;20044;-36
2022/04/01 02:49:11;;;;;;;6.07;1.80;;;0.20;99.90;;;;;;5064487;28;20505;-34
2022/04/01 02:51:39;;;;;;;6.73;1.90;;;0.10;99.90;;;;;;5063376;28;20048;-36
2022/04/01 02:54:06;;;;;;;6.57;1.73;;;0.10;99.90;;;;;;5064393;28;20503;-37
2022/04/01 02:56:34;;;;;;;6.97;1.50;;;0.10;99.90;;;;;;5049707;28;20636;-36
2022/04/01 02:59:01;;;;;;;8.50;1.90;;;0.20;99.90;;;;;;5062812;28;20048;-36
2022/04/01 03:01:28;;;;;;;9.40;2.07;;;0.20;99.90;;;;;;5064482;28;20048;-33
2022/04/01 03:03:55;;;;;;;6.20;1.70;;;0.20;99.90;;;;;;5064570;28;20095;-33
2022/04/01 03:06:21;;;;;;;6.27;1.97;;;0.20;99.90;;;;;;5039855;28;20056;-37
2022/04/01 03:08:49;;;;;;;8.43;1.80;;;0.20;99.90;;;;;;5040597;28;20094;-37
2022/04/01 03:11:15;;;;;;;5.83;1.40;;;0.20;99.90;;;;;;5044874;28;20049;-36
2022/04/01 03:13:41;;;;;;;5.07;1.63;;;0.10;99.90;;;;;;5044537;28;20542;-35
2022/04/01 03:16:07;;;;;;;6.27;1.40;;;0.20;99.90;;;;;;5040254;28;20091;-35
2022/04/01 03:18:32;;;;;;;8.20;2.00;;;0.20;99.90;;;;;;5032073;28;20076;-37
2022/04/01 03:20:58;;;;;;;5.20;1.57;;;0.10;99.90;;;;;;5044990;28;20136;-35
2022/04/01 03:23:24;;;;;;;10.77;1.73;;;0.20;99.90;;;;;;5044073;28;20471;-37
2022/04/01 03:25:52;;;;;;;5.37;1.40;;;0.10;99.90;;;;;;5051051;28;20202;-37
2022/04/01 03:28:18;;;;;;;4.13;1.70;;;0.10;99.90;;;;;;5042762;28;20040;-37
2022/04/01 03:30:44;;;;;;;5.43;1.37;;;0.10;99.90;;;;;;5064185;28;20056;-37
2022/04/01 03:33:11;;;;;;;6.90;2.00;;;0.20;99.90;;;;;;5064191;28;20076;-37
2022/04/01 03:35:37;;;;;;;4.80;1.43;;;0.20;99.90;;;;;;5064226;28;20044;-36
2022/04/01 03:38:05;;;;;;;3.63;1.33;;;0.20;99.90;;;;;;5048587;28;20041;-36
2022/04/01 03:40:32;;;;;;;7.97;1.93;;;0.20;99.90;;;;;;5064990;28;20128;-37
2022/04/01 03:42:59;;;;;;;6.17;1.50;;;0.20;99.90;;;;;;5063902;28;20139;-37
2022/04/01 03:45:24;;;;;;;6.10;1.60;;;0.20;99.90;;;;;;5064624;28;20052;-37
2022/04/01 03:48:07;;;;;;;4.47;1.40;;;0.30;99.90;;;;;;5047268;28;20431;-37
2022/04/01 03:50:34;;;;;;;3.73;1.43;;;0.30;99.90;;;;;;5064896;28;20040;-36
2022/04/01 03:53:09;;;;;;;7.57;2.00;;;0.20;99.90;;;;;;5063320;28;20078;-35
2022/04/01 03:55:38;;;;;;;4.93;1.40;;;0.30;99.90;;;;;;5061628;28;20036;-35
2022/04/01 03:58:09;;;;;;;4.07;1.30;;;0.30;99.90;;;;;;5047724;28;20048;-35
2022/04/01 04:00:35;;;;;;;;;;;0.30;99.90;;;;;;5065058;28;20098;-36
2022/04/01 04:03:08;;;;;;;8.17;1.77;;;0.30;99.90;;;;;;5063375;28;19920;-36
2022/04/01 04:05:38;;;;;;;4.60;1.40;;;0.30;99.90;;;;;;5055510;28;20048;-36
2022/04/01 04:08:06;;;;;;;5.27;1.37;;;0.30;99.90;;;;;;5027720;28;20142;-37
2022/04/01 04:10:34;;;;;;;4.07;1.40;;;0.30;99.90;;;;;;5044572;28;20094;-33
2022/04/01 04:13:01;;;;;;;5.87;1.37;;;0.30;99.90;;;;;;5043650;28;20045;-37
2022/04/01 04:15:31;;;;;;;5.40;1.40;;;0.30;99.90;;;;;;5044182;28;20497;-34
2022/04/01 04:18:05;;;;;;;4.63;1.50;;;0.40;99.90;;;;;;5027130;28;20053;-36
2022/04/01 04:20:35;;;;;;;4.77;1.33;;;0.40;99.90;;;;;;5044392;28;20120;-35
2022/04/01 04:23:06;;;;;;;8.07;1.73;;;0.40;99.90;;;;;;5043285;28;20072;-35
2022/04/01 04:25:36;;;;;;;;;;;0.40;99.90;;;;;;5052097;28;20068;-37
2022/04/01 04:28:10;;;;;;;6.10;1.80;;;0.40;99.90;;;;;;5047675;28;20329;-36
2022/04/01 04:30:53;;;;;;;8.37;2.00;;;0.40;99.90;;;;;;5063500;28;20053;-35
2022/04/01 04:33:22;;;;;;;9.50;1.80;;;0.40;99.90;;;;;;5062092;28;20102;-35
2022/04/01 04:35:49;;;;;;;7.43;1.80;;;0.40;99.90;;;;;;5060012;28;20473;-37
2022/04/01 04:38:16;;;;;;;7.67;1.63;;;0.40;99.90;;;;;;5049702;28;20044;-35
2022/04/01 04:40:43;;;;;;;7.90;1.50;;;0.50;99.90;;;;;;5067464;28;20037;-33
2022/04/01 04:43:10;;;;;;;6.57;1.90;;;0.40;99.90;;;;;;5066896;28;20044;-36
2022/04/01 04:45:37;;;;;;;9.07;1.97;;;0.50;99.90;;;;;;5067451;28;20052;-36
2022/04/01 04:48:04;;;;;;;8.50;1.97;;;0.50;99.90;;;;;;5051019;28;20052;-35
2022/04/01 04:50:32;;;;;;;6.93;1.80;;;0.50;99.90;;;;;;5067624;28;20044;-36
2022/04/01 04:52:57;;;;;;;4.40;1.43;;;0.50;99.90;;;;;;5066610;28;20127;-33
2022/04/01 04:55:24;;;;;;;8.43;1.60;;;0.50;99.90;;;;;;5058230;28;20124;-34
2022/04/01 04:57:52;;;;;;;7.47;1.87;;;0.50;99.90;;;;;;5031352;28;20172;-36
2022/04/01 05:00:19;;;;;;;4.57;1.70;;;0.50;99.90;;;;;;5047177;28;20500;-36
2022/04/01 05:03:06;;;;;;;5.53;2.27;;;0.50;99.90;;;;;;5046530;28;20091;-36
2022/04/01 05:05:51;;;;;;;9.70;2.40;;;0.50;99.90;;;;;;5047779;28;20059;-37
2022/04/01 05:09:05;;;;;;;9.30;1.97;;;0.50;99.90;;;;;;5032364;28;20045;-35
2022/04/01 05:11:44;;;;;;;6.83;1.97;;;0.50;99.90;;;;;;5053924;28;20037;-37
2022/04/01 05:14:13;;;;;;;7.07;1.90;;;0.50;99.90;;;;;;5062347;28;20048;-38
2022/04/01 05:16:54;;;;;;;6.37;1.87;;;0.60;99.90;;;;;;5048459;28;20403;-38
2022/04/01 05:19:29;;;;;;;;;;;0.60;99.90;;;;;;5061148;28;20061;-37
2022/04/01 05:22:03;;;;;;;3.27;1.33;;;0.60;99.90;;;;;;5062084;28;19990;-34
2022/04/01 05:24:48;;;;;;;10.40;1.83;;;0.60;99.90;;;;;;5065020;28;20136;-38
2022/04/01 05:27:25;;;;;;;5.60;1.87;;;0.60;99.90;;;;;;5041729;28;20049;-37
2022/04/01 05:30:13;;;;;;;5.07;1.97;;;0.60;99.90;;;;;;5054691;28;20128;-37
2022/04/01 05:32:40;;;;;;;6.57;1.80;;;0.60;99.90;;;;;;5058522;28;20051;-36
2022/04/01 05:35:07;;;;;;;6.83;1.70;;;0.60;99.90;;;;;;5055175;28;20106;-36
2022/04/01 05:37:35;;;;;;;6.53;1.83;;;0.60;99.90;;;;;;5049466;28;20088;-38
2022/04/01 05:40:05;;;;;;;5.20;1.60;;;0.60;99.90;;;;;;5065155;28;20048;-33
2022/04/01 05:42:32;;;;;;;7.53;2.07;;;0.60;99.90;;;;;;5064823;28;20095;-36
2022/04/01 05:44:59;;;;;;;9.27;1.93;;;0.60;99.90;;;;;;5054664;28;20058;-36
2022/04/01 05:47:26;;;;;;;6.67;2.00;;;0.60;99.90;;;;;;5050379;28;20117;-36
2022/04/01 05:49:56;;;;;;;6.17;1.33;;;0.60;99.90;;;;;;5054392;28;20218;-37
2022/04/01 05:52:22;;;;;;;6.07;1.63;;;0.60;99.90;;;;;;5046359;28;20120;-37
2022/04/01 05:54:50;;;;;;;4.70;1.70;;;0.60;99.90;;;;;;5049843;28;20116;-37
2022/04/01 05:57:19;;;;;;;5.47;1.80;;;0.60;99.90;;;;;;5049977;28;20119;-36
2022/04/01 05:59:45;;;;;;;6.67;1.97;;;0.60;99.90;;;;;;5066111;28;20086;-35
2022/04/01 06:02:57;;;;;;;7.00;1.63;;;0.60;99.90;;;;;;5055366;28;20047;-36
2022/04/01 06:05:48;;;;;;;;;;;0.70;99.90;;;;;;5028684;28;20052;-37
2022/04/01 06:08:32;;;;;;;4.75;1.20;;;0.60;99.90;;;;;;5047959;28;19974;-37
2022/04/01 06:11:37;;;;;;;4.47;1.30;;;0.70;99.90;;;;;;5065869;28;20052;-35
2022/04/01 06:14:15;;;;;;;5.57;1.60;;;0.70;99.90;;;;;;5062094;28;20045;-34
2022/04/01 06:16:52;;;;;;;8.87;1.93;;;0.70;99.90;;;;;;5048958;28;20516;-35
2022/04/01 06:19:24;;;;;;;5.00;1.40;;;0.70;99.90;;;;;;5053276;28;20420;-37
2022/04/01 06:22:12;;;;;;;8.30;2.03;;;0.70;99.90;;;;;;5045701;28;20056;-38
2022/04/01 06:25:12;;;;;;;5.27;1.60;;;0.70;99.90;;;;;;5056512;28;20040;-37
2022/04/01 06:27:49;;;;;;;7.20;1.70;;;0.70;99.90;;;;;;5037272;28;21993;-36
2022/04/01 06:30:20;;;;;;;6.53;1.57;;;0.80;99.90;;;;;;5036050;28;20049;-36
2022/04/01 06:32:49;;;;;;;4.38;1.55;;;0.80;99.90;;;;;;5054150;28;20053;-35
2022/04/01 06:35:18;;;;;;;5.93;1.83;;;0.80;99.90;;;;;;5041891;28;20056;-35
2022/04/01 06:38:05;;;;;;;6.13;1.50;;;0.80;99.90;;;;;;5040013;28;20052;-34
2022/04/01 06:40:46;;;;;;;4.33;1.77;;;0.80;99.90;;;;;;5057628;28;20032;-36
2022/04/01 06:43:11;;;;;;;6.80;1.80;;;0.80;99.90;;;;;;5057955;28;20395;-36
2022/04/01 06:45:39;;;;;;;12.80;2.07;;;0.80;99.90;;;;;;5051037;28;20056;-35
2022/04/01 06:48:07;;;;;;;10.07;2.10;;;0.80;99.90;;;;;;5041539;28;20048;-33
2022/04/01 06:50:33;;;;;;;6.53;1.80;;;0.90;99.90;;;;;;5051698;28;20037;-34
2022/04/01 06:52:58;;;;;;;5.97;1.70;;;0.90;99.90;;;;;;5049848;28;20518;-35
2022/04/01 06:55:24;;;;;;;6.93;1.97;;;0.90;99.90;;;;;;5053004;28;20048;-37
2022/04/01 06:57:50;;;;;;;3.80;1.60;;;0.90;99.90;;;;;;5043725;28;20400;-33
2022/04/01 07:00:17;;;;;;;4.63;1.50;;;1.00;99.90;;;;;;5058605;28;20470;-34
2022/04/01 07:02:43;;;;;;;9.23;1.80;;;1.00;99.90;;;;;;5058011;28;20052;-36
2022/04/01 07:05:09;;;;;;;4.10;1.50;;;1.00;99.90;;;;;;5059270;28;20367;-37
2022/04/01 07:07:36;;;;;;;6.33;1.77;;;1.00;99.90;;;;;;5042850;28;20045;-36
2022/04/01 07:10:03;;;;;;;4.50;1.70;;;1.00;99.90;;;;;;5056448;28;20872;-37
2022/04/01 07:12:29;;;;;;;6.17;1.47;;;1.10;99.90;;;;;;5039321;28;20043;-35
2022/04/01 07:14:55;;;;;;;7.40;1.40;;;1.10;99.90;;;;;;5046009;28;20040;-35
2022/04/01 07:17:20;;;;;;;5.83;1.80;;;1.10;99.90;;;;;;5043998;28;20039;-34
2022/04/01 07:19:46;;;;;;;7.17;1.60;;;1.10;99.90;;;;;;5063292;28;20048;-34
2022/04/01 07:22:12;;;;;;;4.73;1.67;;;1.20;99.90;;;;;;5021040;28;20051;-37
2022/04/01 07:24:37;;;;;;;4.27;1.50;;;1.20;99.90;;;;;;5041564;28;20139;-36
2022/04/01 07:27:03;;;;;;;6.30;1.60;;;1.20;99.90;;;;;;5024232;28;20049;-34
2022/04/01 07:29:29;;;;;;;8.83;1.50;;;1.20;99.90;;;;;;5040727;28;20042;-35
2022/04/01 07:34:42;;;;;;;4.07;1.80;;;1.30;99.90;;;;;;5048732;28;20283;-36
2022/04/01 07:37:08;;;;;;;8.20;1.87;;;1.30;99.90;;;;;;5032025;28;20363;-33
2022/04/01 07:39:35;;;;;;;7.57;1.73;;;1.30;99.90;;;;;;5045534;28;20479;-33
2022/04/01 07:42:01;;;;;;;6.50;1.67;;;1.30;99.90;;;;;;5046548;28;20353;-35
2022/04/01 07:44:27;;;;;;;6.97;1.43;;;1.40;99.90;;;;;;5045279;28;20105;-33
2022/04/01 07:46:53;;;;;;;3.67;1.20;;;1.40;99.90;;;;;;5031407;28;20060;-35
2022/04/01 07:49:19;;;;;;;4.60;1.47;;;1.40;99.90;;;;;;5043899;28;20055;-32
2022/04/01 07:51:45;;;;;;;5.03;1.60;;;1.40;99.90;;;;;;5044362;28;21682;-35
2022/04/01 07:54:13;;;;;;;5.30;1.60;;;1.50;99.90;;;;;;5044036;28;20052;-33
2022/04/01 07:56:40;;;;;;;6.90;1.50;;;1.50;99.90;;;;;;5035155;28;20375;-34
2022/04/01 07:59:14;;;;;;;5.53;1.30;;;1.50;99.90;;;;;;5046068;28;20048;-34
2022/04/01 08:01:39;;;;;;;3.17;1.40;;;1.50;99.90;;;;;;5048651;28;20048;-36
2022/04/01 08:04:05;;;;;;;3.80;1.00;;;1.50;99.90;;;;;;5044401;28;20142;-35
2022/04/01 08:06:31;;;;;;;4.23;1.53;;;1.50;99.90;;;;;;5031960;28;20110;-36
2022/04/01 08:08:58;;;;;;;2.17;1.13;;;1.50;99.90;;;;;;5043878;28;20555;-32
2022/04/01 08:11:27;;;;;;;5.17;1.17;;;1.50;99.90;;;;;;5046971;28;20059;-33
2022/04/01 08:13:54;;;;;;;3.80;1.30;;;1.50;99.90;;;;;;5050065;28;20052;-35
2022/04/01 08:16:20;;;;;;;7.07;1.47;;;1.60;99.90;;;;;;5036021;28;20555;-35
2022/04/01 08:18:46;;;;;;;3.00;1.30;;;1.60;99.90;;;;;;5045670;28;20060;-36
2022/04/01 08:21:12;;;;;;;5.83;1.57;;;1.60;99.90;;;;;;5049405;28;20036;-36
2022/04/01 08:23:38;;;;;;;2.83;1.10;;;1.60;99.90;;;;;;5045147;28;20453;-34
2022/04/01 08:26:07;;;;;;;2.27;0.97;;;1.60;99.90;;;;;;5055280;28;20121;-36
2022/04/01 08:28:34;;;;;;;3.17;1.20;;;1.60;99.90;;;;;;5044625;28;20470;-37
2022/04/01 08:31:00;;;;;;;2.30;1.10;;;1.70;99.90;;;;;;5053790;28;20052;-34
2022/04/01 08:33:26;;;;;;;3.60;1.50;;;1.60;99.90;;;;;;5048822;28;20082;-35
2022/04/01 08:35:52;;;;;;;4.17;1.53;;;1.70;99.90;;;;;;5047458;28;20056;-33
2022/04/01 08:38:18;;;;;;;2.70;1.50;;;1.70;99.90;;;;;;5032058;28;20041;-33
2022/04/01 08:40:44;;;;;;;7.27;1.50;;;1.80;99.90;;;;;;5057568;28;20044;-35
2022/04/01 08:43:10;;;;;;;6.33;1.57;;;1.70;99.90;;;;;;5046676;28;20091;-34
2022/04/01 08:45:37;;;;;;;3.33;1.30;;;1.80;99.90;;;;;;5051160;28;21361;-33
2022/04/01 08:48:05;;;;;;;4.20;1.10;;;1.80;99.90;;;;;;5033593;28;20394;-32
2022/04/01 08:50:31;;;;;;;3.73;1.30;;;1.80;99.90;;;;;;5052855;28;20048;-36
2022/04/01 08:52:57;;;;;;;2.83;0.87;;;1.80;99.90;;;;;;5045322;28;20044;-34
2022/04/01 08:55:22;;;;;;;3.30;1.00;;;1.80;99.90;;;;;;5054958;28;20413;-33
2022/04/01 08:57:48;;;;;;;2.33;1.10;;;1.90;99.90;;;;;;5033511;28;20048;-31
2022/04/01 09:00:14;;;;;;;5.90;1.67;;;1.90;99.90;;;;;;5049653;28;20558;-36
2022/04/01 09:02:41;;;;;;;2.70;1.10;;;2.00;99.90;;;;;;5043560;28;20095;-33
2022/04/01 09:05:07;;;;;;;3.43;1.40;;;2.00;99.90;;;;;;5053027;28;20146;-34
2022/04/01 09:07:34;;;;;;;3.93;1.80;;;2.00;99.90;;;;;;5035398;28;20049;-33
2022/04/01 09:10:07;;;;;;;3.60;1.43;;;2.10;99.90;;;;;;5054826;28;20049;-35
2022/04/01 09:12:34;;;;;;;3.57;1.30;;;2.10;99.90;;;;;;5053163;28;20051;-34
2022/04/01 09:15:03;;;;;;;2.87;1.63;;;2.20;99.90;;;;;;5048015;28;20040;-32
2022/04/01 09:17:46;;;;;;;4.27;1.47;;;2.20;99.90;;;;;;5030600;28;20071;-33
2022/04/01 09:20:14;;;;;;;3.63;1.73;;;2.30;99.90;;;;;;5054322;28;20084;-33
2022/04/01 09:22:40;;;;;;;6.73;1.17;;;2.40;99.90;;;;;;5050789;28;20500;-35
2022/04/01 09:25:09;;;;;;;4.20;1.83;;;2.40;99.90;;;;;;5046494;28;20041;-32
2022/04/01 09:27:54;;;;;;;6.27;1.90;;;2.50;99.90;;;;;;5026761;28;20048;-31
2022/04/01 09:30:28;;;;;;;3.20;1.63;;;2.50;99.90;;;;;;5046442;28;20110;-34
2022/04/01 09:32:59;;;;;;;3.37;1.60;;;2.50;99.90;;;;;;5046161;28;20494;-31
2022/04/01 09:35:32;;;;;;;5.75;1.80;;;2.50;99.90;;;;;;5028524;28;20676;-33
2022/04/01 09:38:04;;;;;;;3.73;1.77;;;2.60;99.90;;;;;;5028490;28;20148;-32
2022/04/01 09:40:35;;;;;;;5.40;1.83;;;2.70;99.90;;;;;;5046942;28;20127;-32
2022/04/01 09:43:01;;;;;;;3.53;1.77;;;2.70;99.90;;;;;;5050058;28;20040;-34
2022/04/01 09:45:32;;;;;;;5.33;1.57;;;2.70;99.90;;;;;;5031045;28;20492;-33
2022/04/01 09:48:04;;;;;;;8.05;2.05;;;2.80;99.90;;;;;;5027079;28;20412;-33
2022/04/01 09:50:36;;;;;;;3.07;1.70;;;2.80;99.90;;;;;;5043074;28;20557;-33
2022/04/01 09:53:12;;;;;;;3.10;1.23;;;2.90;99.90;;;;;;5047769;28;20056;-33
2022/04/01 09:55:40;;;;;;;5.33;1.70;;;2.90;99.90;;;;;;5052098;28;20053;-32
2022/04/01 09:58:07;;;;;;;3.30;1.37;;;2.90;99.90;;;;;;5014299;28;20586;-32
2022/04/01 10:00:34;;;;;;;3.87;1.63;;;2.90;99.90;;;;;;5044226;28;20160;-34
2022/04/01 10:03:00;;;;;;;5.30;1.60;;;3.00;99.90;;;;;;5042238;28;20047;-33
2022/04/01 10:05:27;;;;;;;2.50;1.60;;;3.00;99.90;;;;;;5041646;28;20045;-31
2022/04/01 10:07:57;;;;;;;2.50;1.40;;;3.00;99.90;;;;;;5029355;28;20044;-33
2022/04/01 10:10:25;;;;;;;3.33;0.87;;;3.00;99.90;;;;;;5051333;28;20041;-35
2022/04/01 10:12:53;;;;;;;2.67;1.30;;;3.00;99.90;;;;;;5047670;28;20287;-32
2022/04/01 10:15:20;;;;;;;2.27;1.37;;;3.00;99.90;;;;;;5051464;28;20412;-34
2022/04/01 10:17:46;;;;;;;4.33;1.17;;;3.00;99.90;;;;;;5036602;28;20052;-32
2022/04/01 10:20:13;;;;;;;3.07;1.10;;;3.00;99.90;;;;;;5049641;28;20416;-34
2022/04/01 10:22:41;;;;;;;5.17;1.27;;;3.10;99.90;;;;;;5048329;28;20051;-34
2022/04/01 10:25:16;;;;;;;3.07;1.30;;;3.30;99.90;;;;;;5048171;28;20087;-33
2022/04/01 10:27:50;;;;;;;4.47;1.27;;;3.20;99.90;;;;;;5038127;28;20048;-32
2022/04/01 10:30:19;;;;;;;4.53;1.17;;;3.30;99.90;;;;;;5048380;28;20128;-33
2022/04/01 10:32:47;;;;;;;1.80;0.97;;;3.30;99.90;;;;;;5047567;28;20045;-32
2022/04/01 10:35:31;;;;;;;5.23;1.00;;;3.30;99.90;;;;;;5051289;28;20056;-31
2022/04/01 10:38:05;;;;;;;2.90;1.00;;;3.40;99.90;;;;;;5033544;28;20106;-31
2022/04/01 10:40:42;;;;;;;4.17;0.97;;;3.40;99.90;;;;;;5045753;28;20128;-31
2022/04/01 10:43:40;;;;;;;4.10;1.27;;;3.40;99.90;;;;;;5045358;28;20041;-31
2022/04/01 10:46:08;;;;;;;2.90;1.00;;;3.40;99.90;;;;;;5049035;28;20060;-33
2022/04/01 10:51:41;;;;;;;2.87;0.87;;;3.50;99.90;;;;;;5049242;28;20434;-34
2022/04/01 10:54:12;;;;;;;3.70;0.77;;;3.50;99.90;;;;;;5044556;28;20158;-33
2022/04/01 10:57:01;;;;;;;3.35;0.70;;;3.50;99.90;;;;;;5025567;28;20456;-35
2022/04/01 10:59:28;;;;;;;4.10;0.97;;;3.50;99.90;;;;;;5046644;28;20109;-35
2022/04/01 11:01:53;;;;;;;1.77;0.73;;;3.50;99.90;;;;;;5028661;28;20083;-35
2022/04/01 11:04:19;;;;;;;1.30;0.63;;;3.50;99.90;;;;;;5043459;28;20429;-34
2022/04/01 11:06:55;;;;;;;3.90;0.70;;;3.40;99.90;;;;;;5028989;28;20419;-34
2022/04/01 11:09:47;;;;;;;1.20;0.50;;;3.50;99.90;;;;;;5042291;28;20040;-35
2022/04/01 11:12:19;;;;;;;4.33;0.70;;;3.50;99.90;;;;;;5048260;28;20827;-36
2022/04/01 11:14:57;;;;;;;;;;;3.50;99.90;;;;;;5056942;28;20045;-36
2022/04/01 11:17:28;;;;;;;2.70;0.50;;;3.50;99.90;;;;;;5031980;28;20024;-33
2022/04/01 11:20:10;;;;;;;1.70;0.70;;;3.50;99.90;;;;;;5045725;28;20155;-33
2022/04/01 11:22:40;;;;;;;3.78;0.90;;;3.50;99.90;;;;;;5044537;28;20052;-35
2022/04/01 11:25:07;;;;;;;2.83;0.80;;;3.50;99.90;;;;;;5050077;28;20048;-33
2022/04/01 11:27:34;;;;;;;1.40;0.87;;;3.50;99.90;;;;;;5027586;28;20049;-36
2022/04/01 11:30:14;;;;;;;2.17;0.80;;;3.40;99.90;;;;;;5049869;28;20045;-35
2022/04/01 11:32:45;;;;;;;5.50;1.10;;;3.50;99.90;;;;;;5045810;28;20053;-36
2022/04/01 11:35:15;;;;;;;3.58;0.90;;;3.50;99.90;;;;;;5049943;28;20300;-37
2022/04/01 11:37:44;;;;;;;3.33;0.90;;;3.50;99.90;;;;;;5031349;28;20468;-36
2022/04/01 11:40:13;;;;;;;4.13;1.00;;;3.50;99.90;;;;;;5046425;28;20519;-34
2022/04/01 11:43:06;;;;;;;3.20;0.73;;;3.40;99.90;;;;;;5041637;28;20051;-33
2022/04/01 11:45:45;;;;;;;1.80;0.87;;;3.40;99.90;;;;;;5046546;28;20465;-37
2022/04/01 11:48:28;;;;;;;3.30;1.03;;;3.40;99.90;;;;;;5028404;28;20526;-34
2022/04/01 11:50:58;;;;;;;3.83;1.03;;;3.40;99.90;;;;;;5043302;28;20041;-35
2022/04/01 11:53:35;;;;;;;3.63;1.20;;;3.50;99.90;;;;;;5047683;28;20139;-35
2022/04/01 11:56:03;;;;;;;4.00;1.00;;;3.50;99.90;;;;;;5048202;28;20037;-33
2022/04/01 11:58:54;;;;;;;2.03;0.73;;;3.50;99.90;;;;;;5030730;28;20075;-35
2022/04/01 12:01:24;;;;;;;5.80;1.17;;;3.50;99.90;;;;;;5044692;28;20054;-37
2022/04/01 12:03:49;;;;;;;2.77;1.07;;;3.50;99.90;;;;;;5051095;28;20139;-36
2022/04/01 12:09:04;;;;;;;4.30;1.17;;;3.60;99.90;;;;;;5050975;28;20100;-36
2022/04/01 12:11:37;;;;;;;5.40;1.30;;;3.60;99.90;;;;;;5056408;28;20048;-34
2022/04/01 12:14:03;;;;;;;4.50;1.50;;;3.60;99.90;;;;;;5038181;28;20083;-33
2022/04/01 12:16:29;;;;;;;3.87;1.00;;;3.60;99.90;;;;;;5024372;28;20541;-35
2022/04/01 12:18:57;;;;;;;2.43;1.10;;;3.60;99.90;;;;;;5040518;28;20044;-37
2022/04/01 12:21:23;;;;;;;4.03;1.33;;;3.60;99.90;;;;;;5054401;28;20032;-36
2022/04/01 12:23:51;;;;;;;6.40;1.33;;;3.60;99.90;;;;;;5055235;28;20056;-35
2022/04/01 12:26:24;;;;;;;4.80;1.00;;;3.60;99.90;;;;;;5046197;28;20090;-35
2022/04/01 12:28:50;;;;;;;3.83;1.17;;;3.60;99.90;;;;;;5016974;28;20127;-36
2022/04/01 12:31:25;;;;;;;2.60;0.90;;;3.60;99.90;;;;;;5045958;28;20131;-36
2022/04/01 12:33:52;;;;;;;2.70;1.10;;;3.70;99.90;;;;;;5048652;28;20068;-36
2022/04/01 12:36:32;;;;;;;4.50;1.23;;;3.70;99.90;;;;;;5039197;28;20041;-33
2022/04/01 12:39:12;;;;;;;3.50;1.00;;;3.70;99.90;;;;;;5045582;28;20102;-35
2022/04/01 12:42:15;;;;;;;6.87;1.40;;;3.70;99.90;;;;;;5043880;28;20076;-36
2022/04/01 12:44:41;;;;;;;2.83;1.00;;;3.80;99.90;;;;;;5048893;28;20446;-35
2022/04/01 12:47:08;;;;;;;4.27;1.10;;;3.80;99.90;;;;;;5029643;28;20052;-35
2022/04/01 12:49:36;;;;;;;4.00;0.90;;;3.90;99.90;;;;;;5044810;28;20654;-36
2022/04/01 12:52:06;;;;;;;2.80;0.90;;;3.90;99.90;;;;;;5048147;28;20040;-34
2022/04/01 12:54:41;;;;;;;2.25;1.10;;;3.90;99.90;;;;;;5048246;28;20446;-36
2022/04/01 12:57:10;;;;;;;5.67;1.37;;;3.90;99.90;;;;;;5025213;28;20791;-33
2022/04/01 12:59:41;;;;;;;5.57;1.43;;;3.90;99.90;;;;;;5046284;28;20126;-37
2022/04/01 13:02:17;;;;;;;6.90;1.25;;;3.90;99.90;;;;;;5049008;28;20037;-36
2022/04/01 13:04:49;;;;;;;6.57;1.70;;;3.90;99.90;;;;;;5054171;28;20087;-38
2022/04/01 13:07:18;;;;;;;6.40;1.65;;;3.90;99.90;;;;;;5037956;28;20276;-36
2022/04/01 13:09:57;;;;;;;4.20;1.37;;;3.90;99.90;;;;;;5049083;28;20194;-37
2022/04/01 13:12:47;;;;;;;6.17;1.57;;;4.00;99.90;;;;;;5047100;28;20041;-34
2022/04/01 13:15:16;;;;;;;5.63;1.37;;;4.00;99.90;;;;;;5050698;28;20040;-36
2022/04/01 13:17:44;;;;;;;4.73;1.10;;;4.00;99.90;;;;;;5034356;28;20500;-34
2022/04/01 13:20:12;;;;;;;3.47;1.37;;;4.00;99.90;;;;;;5049812;28;20095;-35
2022/04/01 13:22:42;;;;;;;5.40;1.23;;;4.00;99.90;;;;;;5049525;28;20208;-36
2022/04/01 13:25:09;;;;;;;5.53;1.73;;;4.00;99.90;;;;;;5049103;28;20625;-33